Monday, December 16, 2019, 2:09 PM GMT
Back to Local

CYMX, Montreal / Mirabel

Location: , , Canada Lat: 45.683
Local Time: 2:09 PM GMT (14:09 GMT) Lon: -74.033
Time Zone: GMT Elev: 269 ft

Show me the last for .
Show Decoded

2019-12-16 13:00 METAR CYMX 161300Z 23004KT 45SM FEW020 FEW250 M13/M16 A3022 RMK SC1CI1 SC TR
                 SLP243 =
2019-12-16 12:00 METAR CYMX 161200Z 24005KT 210V270 45SM FEW020 FEW250 M13/M16 A3020 RMK SC1CI1
                 SC TR SLP234 =
2019-12-16 11:00 METAR CYMX 161100Z 25006KT 220V280 25SM SKC M13/M16 A3018 RMK SLP229 =
2019-12-16 10:00 METAR CYMX 161000Z 23005KT 210V280 25SM SKC M13/M16 A3017 RMK SLP225 =
2019-12-16 09:00 METAR CYMX 160900Z 26006KT 25SM FEW025 M12/M15 A3015 RMK SC1 SC TR SLP219 =
2019-12-16 08:00 METAR CYMX 160800Z 26007KT 230V290 25SM FEW030 M12/M15 A3015 RMK SC2 SLP219 =
2019-12-16 07:00 METAR CYMX 160700Z 25006KT 25SM FEW030 M12/M16 A3013 RMK SC2 SLP211 =
2019-12-16 06:00 METAR CYMX 160600Z 26008G15KT 230V300 25SM FEW029 M11/M16 A3009 RMK SC2 SLP197 =
2019-12-16 05:00 METAR CYMX 160500Z 26011G23KT 240V310 25SM FEW031 M11/M16 A3008 RMK SC2 SLP192 =
2019-12-16 04:00 METAR CYMX 160400Z 26011G18KT 25SM SCT032 M11/M16 A3006 RMK SC3 PRESRR SLP186 =
2019-12-16 03:00 METAR CYMX 160300Z 26008G21KT 230V300 25SM SCT030 M10/M15 A3001 RMK SC3 SLP170 =
2019-12-16 02:00 METAR CYMX 160200Z 25008G15KT 220V290 25SM SCT028 M10/M14 A2998 RMK SC3 SLP160 =
2019-12-16 01:00 METAR CYMX 160100Z 27011G21KT 250V310 25SM SCT030 M09/M14 A2996 RMK SC4 SLP151 =
2019-12-16 00:00 METAR CYMX 160000Z 27010G19KT 25SM SCT036 M08/M14 A2993 RMK SC3 SLP142 =
2019-12-15 23:00 METAR CYMX 152300Z 26016G28KT 240V300 25SM VCSH SCT031 M08/M13 A2988 RMK CU4
                 PRESRR SLP127 =
2019-12-15 22:00 METAR CYMX 152200Z 26011G24KT 220V310 20SM -SHSN SCT025 BKN100 M08/M12 A2981 RMK
                 CU4AC1 PRESRR SLP101 =
2019-12-15 21:00 METAR CYMX 152100Z 26007G19KT 250V310 20SM -SHSN BKN023 BKN100 M07/M11 A2974 RMK
                 CU6AC1 PRESRR SLP079 =
2019-12-15 20:00 METAR CYMX 152000Z 27012G21KT 230V310 20SM -SHSN BKN025 BKN100 M07/M11 A2969 RMK
                 CU5AC1 SLP059 =
2019-12-15 19:00 METAR CYMX 151900Z 27010G21KT 240V310 20SM -SHSN BKN025 BKN100 M06/M10 A2962 RMK
                 SC6AC1 CVCTV CLD EMBD PRESRR SLP036 =
2019-12-15 18:00 METAR CYMX 151800Z 28012G21KT 240V320 25SM -SHSN SCT023 BKN055 BKN100 M06/M10
                 A2957 RMK SC4SC1AC2 SLP019 =
2019-12-15 17:00 METAR CYMX 151700Z 26010G18KT 10SM -SHSN BKN019 OVC035 M05/M08 A2954 RMK SC6SC2
                 CVCTV CLD EMBD SLP009 =
2019-12-15 16:00 METAR CYMX 151600Z 25012G25KT 8SM -SHSN OVC018 M04/M07 A2950 RMK SC8 CVCTV CLDS
                 EMDB SLP997 =
2019-12-15 15:00 METAR CYMX 151500Z 26013G23KT 15SM -SHSN SCT020 OVC097 M04/M07 A2947 RMK SC4AC4
                 CVCTV CLD EMBD SLP983 =

Support USWX by starting your Amazon purchase here.